Wayland, Iowa
Current Conditions -  °F | °C
As of 11:15 AM on Thursday 27 Nov 2014 (Local Time) from KAWG Reporting Station
Clear Clear  
Wind Chill: -7°   Ceiling: Unl
Heat Index: 10°   Visibility: 10mi
Dew Point:   Wind: 16mph
Humidity: 85%   Direction: 280°W
Pressure: 30.5"   Gusts: NA
Location:  41.15°N, 91.66°W
Report Text: KAWG 271715Z AUTO 28014KT 10SM CLR M12/M14 A3050 RMK AO2
Loading
Personal Weather Stations






























Interactive Weather Map New forecast layout! Learn more

10-Day Weather Forecast

Advertisements
Track Severe Weather on mobile